Time;durP1;ratioP1;P1;durP2;ratioP2;P2;SDS_P1;SDS_P2;PMS_P1;PMS_P2;Temp;Humidity;BMP_temperature;BMP_pressure;BME280_temperature;BME280_humidity;BME280_pressure;Samples;Min_cycle;Max_cycle;Signal;HPM_P1;HPM_P2
2021/12/02 00:00:05;;;;;;;0.50;0.50;;;;;;;;;;5011595;28;20920;-72
2021/12/02 00:02:31;;;;;;;0.40;0.40;;;;;;;;;;5008515;28;20546;-71
2021/12/02 00:04:57;;;;;;;0.40;0.40;;;;;;;;;;5009569;28;20466;-72
2021/12/02 00:07:23;;;;;;;0.70;0.70;;;;;;;;;;5011199;28;20483;-74
2021/12/02 00:09:49;;;;;;;0.50;0.50;;;;;;;;;;5011783;28;20436;-72
2021/12/02 00:12:15;;;;;;;0.80;0.40;;;;;;;;;;5012280;28;20884;-72
2021/12/02 00:14:46;;;;;;;0.80;0.50;;;;;;;;;;5010934;28;20435;-72
2021/12/02 00:17:20;;;;;;;0.93;0.47;;;;;;;;;;5002704;28;20479;-72
2021/12/02 00:22:31;;;;;;;0.50;0.50;;;;;;;;;;5006542;28;20571;-72
2021/12/02 00:25:01;;;;;;;1.40;0.60;;;;;;;;;;5008961;28;20426;-71
2021/12/02 00:27:29;;;;;;;0.50;0.50;;;;;;;;;;5010791;28;20467;-71
2021/12/02 00:29:57;;;;;;;0.67;0.60;;;;;;;;;;5008431;28;20803;-71
2021/12/02 00:32:25;;;;;;;1.20;0.70;;;;;;;;;;5010002;28;20440;-72
2021/12/02 00:34:51;;;;;;;0.40;0.40;;;;;;;;;;5010483;28;20424;-72
2021/12/02 00:37:17;;;;;;;0.50;0.50;;;;;;;;;;5010981;28;20436;-71
2021/12/02 00:39:43;;;;;;;5.37;0.67;;;;;;;;;;5010936;28;20486;-72
2021/12/02 00:42:09;;;;;;;1.70;0.63;;;;;;;;;;5011184;28;20491;-71
2021/12/02 00:44:37;;;;;;;1.77;0.50;;;;;;;;;;5007859;28;20506;-71
2021/12/02 00:47:03;;;;;;;0.60;0.60;;;;;;;;;;5009163;28;20824;-71
2021/12/02 00:49:30;;;;;;;0.70;0.50;;;;;;;;;;5011326;28;20428;-71
2021/12/02 00:51:58;;;;;;;1.60;0.63;;;;;;;;;;5010639;28;22446;-73
2021/12/02 00:54:25;;;;;;;0.70;0.70;;;;;;;;;;5009807;28;20439;-71
2021/12/02 00:56:52;;;;;;;1.10;0.60;;;;;;;;;;5006274;28;20484;-72
2021/12/02 00:59:19;;;;;;;0.50;0.50;;;;;;;;;;5010995;28;20797;-71
2021/12/02 01:01:48;;;;;;;0.50;0.50;;;;;;;;;;5010048;28;20492;-71
2021/12/02 01:04:16;;;;;;;0.40;0.40;;;;;;;;;;5009963;28;20436;-72
2021/12/02 01:06:43;;;;;;;0.53;0.53;;;;;;;;;;5007194;28;20455;-72
2021/12/02 01:09:10;;;;;;;0.50;0.50;;;;;;;;;;5008067;28;20524;-74
2021/12/02 01:11:36;;;;;;;0.40;0.40;;;;;;;;;;5007059;28;20574;-71
2021/12/02 01:14:03;;;;;;;0.60;0.60;;;;;;;;;;5010082;28;20435;-71
2021/12/02 01:16:29;;;;;;;0.93;0.73;;;;;;;;;;5010151;28;20436;-72
2021/12/02 01:18:55;;;;;;;1.33;0.73;;;;;;;;;;5010001;28;21441;-71
2021/12/02 01:21:23;;;;;;;0.60;0.60;;;;;;;;;;5010416;28;20558;-71
2021/12/02 01:23:50;;;;;;;0.70;0.70;;;;;;;;;;5005726;28;20449;-72
2021/12/02 01:26:17;;;;;;;1.83;0.50;;;;;;;;;;5007255;28;20991;-73
2021/12/02 01:28:43;;;;;;;0.90;0.90;;;;;;;;;;5011096;28;20445;-72
2021/12/02 01:31:11;;;;;;;1.80;0.70;;;;;;;;;;5009408;28;20463;-71
2021/12/02 01:33:38;;;;;;;4.30;1.20;;;;;;;;;;5009771;28;20490;-71
2021/12/02 01:36:04;;;;;;;0.77;0.77;;;;;;;;;;5009229;28;20452;-71
2021/12/02 01:38:31;;;;;;;0.80;0.80;;;;;;;;;;5008777;28;20549;-71
2021/12/02 01:40:58;;;;;;;0.53;0.53;;;;;;;;;;5009531;28;20484;-72
2021/12/02 01:43:43;;;;;;;0.50;0.50;;;;;;;;;;5009057;28;20511;-71
2021/12/02 01:46:09;;;;;;;0.70;0.70;;;;;;;;;;5006909;28;20479;-73
2021/12/02 01:48:38;;;;;;;0.93;0.73;;;;;;;;;;5009555;28;20467;-72
2021/12/02 01:51:06;;;;;;;1.27;0.80;;;;;;;;;;5007430;28;20433;-72
2021/12/02 01:53:33;;;;;;;0.70;0.70;;;;;;;;;;5009378;28;20497;-72
2021/12/02 01:56:13;;;;;;;0.70;0.70;;;;;;;;;;5006986;28;20939;-71
2021/12/02 01:58:41;;;;;;;0.80;0.80;;;;;;;;;;5004929;28;20518;-72
2021/12/02 02:01:09;;;;;;;0.60;0.60;;;;;;;;;;5007430;28;20470;-72
2021/12/02 02:03:35;;;;;;;3.13;1.20;;;;;;;;;;5007812;28;20443;-72
2021/12/02 02:06:04;;;;;;;1.70;0.60;;;;;;;;;;5006600;28;20921;-71
2021/12/02 02:08:31;;;;;;;0.90;0.90;;;;;;;;;;5008193;28;20434;-71
2021/12/02 02:10:57;;;;;;;0.67;0.67;;;;;;;;;;5009220;28;20436;-71
2021/12/02 02:13:23;;;;;;;0.70;0.70;;;;;;;;;;5008553;28;20538;-71
2021/12/02 02:15:52;;;;;;;3.13;0.90;;;;;;;;;;5005859;28;20444;-71
2021/12/02 02:18:22;;;;;;;1.23;0.70;;;;;;;;;;5008228;28;20436;-72
2021/12/02 02:20:54;;;;;;;1.40;0.63;;;;;;;;;;5006343;28;20488;-72
2021/12/02 02:23:21;;;;;;;0.67;0.67;;;;;;;;;;5009039;28;20511;-73
2021/12/02 02:25:47;;;;;;;0.70;0.70;;;;;;;;;;5008022;28;20536;-72
2021/12/02 02:28:14;;;;;;;1.80;0.53;;;;;;;;;;5009587;28;20525;-71
2021/12/02 02:30:40;;;;;;;0.60;0.60;;;;;;;;;;5007583;28;20428;-72
2021/12/02 02:33:06;;;;;;;0.70;0.70;;;;;;;;;;5007198;28;20443;-72
2021/12/02 02:35:32;;;;;;;0.87;0.77;;;;;;;;;;5007076;28;20924;-72
2021/12/02 02:38:00;;;;;;;1.00;0.90;;;;;;;;;;5009491;28;20440;-72
2021/12/02 02:40:26;;;;;;;1.60;0.83;;;;;;;;;;5008911;28;20428;-72
2021/12/02 02:43:07;;;;;;;0.80;0.80;;;;;;;;;;5004133;28;20572;-72
2021/12/02 02:45:33;;;;;;;0.67;0.67;;;;;;;;;;5005902;28;20483;-71
2021/12/02 02:47:59;;;;;;;0.63;0.63;;;;;;;;;;5005018;28;20454;-71
2021/12/02 02:50:25;;;;;;;0.87;0.50;;;;;;;;;;5008525;28;20816;-71
2021/12/02 02:52:59;;;;;;;1.73;0.60;;;;;;;;;;5009610;28;20443;-72
2021/12/02 02:55:25;;;;;;;0.80;0.80;;;;;;;;;;5008092;28;20770;-72
2021/12/02 03:00:55;;;;;;;0.40;0.40;;;;;;;;;;5000043;28;21049;-71
2021/12/02 03:03:44;;;;;;;0.60;0.60;;;;;;;;;;5008015;28;20435;-72
2021/12/02 03:06:25;;;;;;;0.53;0.50;;;;;;;;;;5002783;28;20429;-72
2021/12/02 03:09:00;;;;;;;0.70;0.70;;;;;;;;;;5003868;28;20531;-72
2021/12/02 03:11:27;;;;;;;1.07;0.53;;;;;;;;;;5008293;28;20497;-71
2021/12/02 03:13:55;;;;;;;0.83;0.57;;;;;;;;;;5037079;28;20534;-71
2021/12/02 03:19:05;;;;;;;1.80;0.77;;;;;;;;;;5008874;28;20427;-72
2021/12/02 03:21:31;;;;;;;0.70;0.70;;;;;;;;;;4998384;28;20496;-71
2021/12/02 03:23:59;;;;;;;0.67;0.57;;;;;;;;;;5003441;28;20472;-71
2021/12/02 03:26:26;;;;;;;0.87;0.50;;;;;;;;;;5006598;28;20452;-71
2021/12/02 03:28:53;;;;;;;14.00;0.80;;;;;;;;;;5007550;28;20812;-72
2021/12/02 03:31:19;;;;;;;2.53;0.60;;;;;;;;;;5007757;28;20467;-71
2021/12/02 03:33:45;;;;;;;0.80;0.80;;;;;;;;;;5008507;28;20511;-72
2021/12/02 03:36:12;;;;;;;0.60;0.60;;;;;;;;;;5008412;28;20498;-71
2021/12/02 03:38:38;;;;;;;2.40;0.60;;;;;;;;;;5008995;28;20428;-71
2021/12/02 03:41:05;;;;;;;3.97;0.83;;;;;;;;;;5005939;28;20483;-71
2021/12/02 03:43:38;;;;;;;2.50;0.70;;;;;;;;;;5006865;28;20951;-72
2021/12/02 03:46:05;;;;;;;0.87;0.87;;;;;;;;;;5008329;28;21628;-72
2021/12/02 03:48:31;;;;;;;3.90;2.63;;;;;;;;;;5007795;28;20577;-71
2021/12/02 03:50:57;;;;;;;0.80;0.60;;;;;;;;;;5008039;28;20435;-71
2021/12/02 03:53:23;;;;;;;1.67;0.57;;;;;;;;;;5005879;28;20526;-72
2021/12/02 03:55:49;;;;;;;1.90;0.40;;;;;;;;;;5008703;28;20531;-71
2021/12/02 03:58:15;;;;;;;2.70;0.80;;;;;;;;;;5005217;28;20796;-71
2021/12/02 04:00:41;;;;;;;1.50;1.23;;;;;;;;;;5011422;28;20487;-71
2021/12/02 04:03:07;;;;;;;2.70;0.90;;;;;;;;;;5005652;28;20432;-72
2021/12/02 04:05:33;;;;;;;5.30;1.10;;;;;;;;;;5009075;28;20475;-71
2021/12/02 04:07:59;;;;;;;1.90;0.60;;;;;;;;;;5012034;28;20428;-71
2021/12/02 04:10:25;;;;;;;2.30;0.93;;;;;;;;;;5011298;28;20448;-71
2021/12/02 04:15:30;;;;;;;1.10;0.93;;;;;;;;;;5010768;28;20476;-72
2021/12/02 04:17:56;;;;;;;1.40;0.80;;;;;;;;;;5039436;28;20436;-72
2021/12/02 04:20:23;;;;;;;3.03;1.00;;;;;;;;;;5010757;28;20428;-74
2021/12/02 04:22:52;;;;;;;4.93;0.87;;;;;;;;;;5010836;28;21028;-74
2021/12/02 04:25:19;;;;;;;1.50;0.70;;;;;;;;;;5011387;28;20881;-72
2021/12/02 04:27:45;;;;;;;1.50;0.90;;;;;;;;;;5009731;28;20435;-71
2021/12/02 04:30:12;;;;;;;0.93;0.83;;;;;;;;;;5011713;28;20527;-72
2021/12/02 04:32:39;;;;;;;3.33;0.97;;;;;;;;;;5011505;28;20435;-71
2021/12/02 04:35:05;;;;;;;1.43;1.13;;;;;;;;;;5010620;28;20543;-71
2021/12/02 04:37:31;;;;;;;7.73;2.17;;;;;;;;;;5010751;28;20811;-71
2021/12/02 04:39:57;;;;;;;0.90;0.90;;;;;;;;;;5011005;28;20434;-71
2021/12/02 04:42:24;;;;;;;1.00;0.97;;;;;;;;;;5011083;28;20491;-71
2021/12/02 04:44:50;;;;;;;1.63;1.23;;;;;;;;;;5010279;28;20502;-72
2021/12/02 04:47:16;;;;;;;2.40;0.83;;;;;;;;;;5007038;28;20459;-72
2021/12/02 04:49:42;;;;;;;1.60;1.33;;;;;;;;;;5011620;28;20432;-73
2021/12/02 04:52:08;;;;;;;0.60;0.60;;;;;;;;;;5009608;28;20435;-72
2021/12/02 04:54:35;;;;;;;3.43;1.23;;;;;;;;;;5011464;28;20432;-72
2021/12/02 04:57:01;;;;;;;2.20;0.87;;;;;;;;;;5039819;28;20944;-72
2021/12/02 04:59:27;;;;;;;2.80;1.10;;;;;;;;;;5009883;28;20518;-71
2021/12/02 05:01:53;;;;;;;1.53;1.23;;;;;;;;;;5008818;28;20607;-71
2021/12/02 05:04:19;;;;;;;2.40;1.40;;;;;;;;;;5010425;28;20444;-72
2021/12/02 05:06:45;;;;;;;7.67;1.27;;;;;;;;;;5009710;28;20448;-72
2021/12/02 05:09:11;;;;;;;0.80;0.80;;;;;;;;;;5010643;28;20447;-71
2021/12/02 05:11:40;;;;;;;1.13;0.70;;;;;;;;;;5009480;28;20955;-73
2021/12/02 05:14:08;;;;;;;0.93;0.93;;;;;;;;;;5006628;28;20441;-72
2021/12/02 05:16:34;;;;;;;1.10;0.83;;;;;;;;;;5008788;28;20436;-71
2021/12/02 05:19:00;;;;;;;1.60;0.73;;;;;;;;;;5010843;28;20429;-71
2021/12/02 05:21:26;;;;;;;2.10;1.10;;;;;;;;;;5009704;28;20502;-72
2021/12/02 05:23:55;;;;;;;1.33;0.77;;;;;;;;;;5007617;28;20808;-72
2021/12/02 05:26:25;;;;;;;4.87;1.20;;;;;;;;;;5007805;28;20443;-72
2021/12/02 05:28:51;;;;;;;1.67;1.43;;;;;;;;;;5009813;28;20932;-71
2021/12/02 05:31:17;;;;;;;2.10;0.70;;;;;;;;;;5010244;28;20443;-71
2021/12/02 05:33:43;;;;;;;5.10;1.07;;;;;;;;;;5009241;28;20432;-71
2021/12/02 05:36:09;;;;;;;0.70;0.70;;;;;;;;;;5007835;28;20443;-71
2021/12/02 05:38:35;;;;;;;1.90;0.80;;;;;;;;;;5008804;28;21165;-74
2021/12/02 05:41:02;;;;;;;3.07;1.23;;;;;;;;;;5008650;28;20480;-71
2021/12/02 05:43:29;;;;;;;1.43;0.80;;;;;;;;;;5008663;28;21055;-71
2021/12/02 05:45:55;;;;;;;5.63;1.33;;;;;;;;;;5008809;28;20550;-71
2021/12/02 05:48:20;;;;;;;2.73;1.10;;;;;;;;;;5010050;28;20464;-71
2021/12/02 05:50:47;;;;;;;3.60;1.33;;;;;;;;;;5009996;28;20436;-72
2021/12/02 05:53:13;;;;;;;3.33;1.03;;;;;;;;;;5008706;28;20432;-72
2021/12/02 05:55:39;;;;;;;2.63;1.20;;;;;;;;;;5040952;28;20454;-71
2021/12/02 05:58:07;;;;;;;1.90;1.23;;;;;;;;;;5008603;28;20440;-73
2021/12/02 06:00:33;;;;;;;1.27;0.80;;;;;;;;;;5008481;28;20460;-72
2021/12/02 06:02:59;;;;;;;3.53;1.40;;;;;;;;;;5039263;28;20440;-71
2021/12/02 06:05:26;;;;;;;1.40;0.90;;;;;;;;;;5009246;28;20769;-74
2021/12/02 06:07:56;;;;;;;1.07;0.77;;;;;;;;;;5009292;28;20436;-72
2021/12/02 06:10:22;;;;;;;1.90;0.87;;;;;;;;;;5007519;28;21279;-72
2021/12/02 06:12:48;;;;;;;1.90;0.93;;;;;;;;;;5009702;28;20440;-72
2021/12/02 06:15:15;;;;;;;3.03;1.43;;;;;;;;;;5039235;28;20431;-72
2021/12/02 06:17:42;;;;;;;1.33;1.33;;;;;;;;;;5009121;28;20440;-72
2021/12/02 06:20:09;;;;;;;5.63;1.10;;;;;;;;;;5008607;28;20433;-72
2021/12/02 06:22:35;;;;;;;6.87;1.00;;;;;;;;;;5007864;28;20523;-72
2021/12/02 06:27:53;;;;;;;1.13;1.03;;;;;;;;;;4983730;28;20970;-72
2021/12/02 06:30:19;;;;;;;2.50;1.67;;;;;;;;;;5006824;28;20428;-72
2021/12/02 06:32:46;;;;;;;2.10;1.00;;;;;;;;;;5007233;28;20799;-71
2021/12/02 06:35:12;;;;;;;1.40;0.60;;;;;;;;;;5005576;28;20478;-74
2021/12/02 06:37:38;;;;;;;1.97;1.20;;;;;;;;;;5003438;28;20429;-72
2021/12/02 06:40:05;;;;;;;0.97;0.97;;;;;;;;;;5006894;28;20436;-73
2021/12/02 06:42:31;;;;;;;2.40;1.70;;;;;;;;;;5023593;28;20523;-73
2021/12/02 06:44:57;;;;;;;3.37;0.97;;;;;;;;;;5005468;28;20475;-72
2021/12/02 06:47:29;;;;;;;0.90;0.73;;;;;;;;;;5008040;28;20436;-72
2021/12/02 06:49:56;;;;;;;0.87;0.70;;;;;;;;;;5008250;28;20428;-72
2021/12/02 06:52:24;;;;;;;2.20;0.70;;;;;;;;;;5006183;28;20582;-73
2021/12/02 06:54:50;;;;;;;0.80;0.80;;;;;;;;;;5006556;28;20991;-72
2021/12/02 06:57:17;;;;;;;1.70;1.17;;;;;;;;;;5007729;28;20444;-73
2021/12/02 06:59:43;;;;;;;1.00;1.00;;;;;;;;;;5008163;28;20440;-74
2021/12/02 07:02:09;;;;;;;2.33;2.10;;;;;;;;;;5007485;28;20507;-73
2021/12/02 07:04:35;;;;;;;2.00;1.63;;;;;;;;;;5006469;28;20523;-72
2021/12/02 07:07:01;;;;;;;2.40;1.50;;;;;;;;;;5004956;28;20451;-72
2021/12/02 07:09:27;;;;;;;1.33;0.73;;;;;;;;;;5007159;28;20826;-72
2021/12/02 07:11:53;;;;;;;2.10;1.00;;;;;;;;;;5006242;28;20432;-72
2021/12/02 07:14:21;;;;;;;2.00;0.50;;;;;;;;;;5006690;28;20432;-72
2021/12/02 07:16:47;;;;;;;3.73;0.67;;;;;;;;;;5001359;28;20498;-73
2021/12/02 07:19:13;;;;;;;0.47;0.47;;;;;;;;;;5006432;28;20446;-73
2021/12/02 07:21:40;;;;;;;6.00;0.70;;;;;;;;;;5006929;28;20476;-72
2021/12/02 07:24:07;;;;;;;1.50;1.40;;;;;;;;;;5008254;28;20455;-76
2021/12/02 07:26:34;;;;;;;4.97;0.80;;;;;;;;;;5005700;28;20454;-72
2021/12/02 07:29:00;;;;;;;2.03;0.83;;;;;;;;;;5007433;28;20543;-72
2021/12/02 07:31:34;;;;;;;1.60;0.77;;;;;;;;;;5006256;28;20433;-72
2021/12/02 07:34:02;;;;;;;1.00;0.90;;;;;;;;;;5011395;28;20825;-72
2021/12/02 07:36:28;;;;;;;5.10;0.80;;;;;;;;;;5008475;28;21591;-72
2021/12/02 07:38:55;;;;;;;1.23;0.90;;;;;;;;;;5010357;28;20475;-72
2021/12/02 07:41:21;;;;;;;0.63;0.63;;;;;;;;;;5012362;28;20491;-76
2021/12/02 07:43:47;;;;;;;0.83;0.83;;;;;;;;;;5010884;28;20470;-72
2021/12/02 07:46:13;;;;;;;0.60;0.60;;;;;;;;;;5010678;28;20487;-72
2021/12/02 07:48:40;;;;;;;4.43;0.90;;;;;;;;;;5009302;28;20427;-72
2021/12/02 07:51:10;;;;;;;0.70;0.70;;;;;;;;;;5011657;28;20436;-73
2021/12/02 07:53:36;;;;;;;1.00;1.00;;;;;;;;;;5040604;28;20444;-72
2021/12/02 07:56:04;;;;;;;1.20;1.10;;;;;;;;;;5012041;28;21009;-72
2021/12/02 07:58:31;;;;;;;4.73;1.47;;;;;;;;;;5009671;28;20440;-72
2021/12/02 08:01:00;;;;;;;2.50;2.30;;;;;;;;;;5011632;28;20498;-73
2021/12/02 08:03:27;;;;;;;0.70;0.70;;;;;;;;;;5011581;28;20424;-73
2021/12/02 08:05:53;;;;;;;0.93;0.93;;;;;;;;;;5011480;28;20435;-73
2021/12/02 08:08:19;;;;;;;4.53;0.90;;;;;;;;;;5008405;28;20940;-74
2021/12/02 08:10:45;;;;;;;2.63;2.43;;;;;;;;;;5011400;28;20998;-73
2021/12/02 08:13:14;;;;;;;1.17;0.70;;;;;;;;;;5010841;28;20436;-73
2021/12/02 08:15:40;;;;;;;0.90;0.90;;;;;;;;;;5010867;28;20859;-73
2021/12/02 08:18:06;;;;;;;0.63;0.63;;;;;;;;;;5009844;28;20439;-74
2021/12/02 08:20:33;;;;;;;2.73;1.10;;;;;;;;;;5011483;28;20816;-75
2021/12/02 08:22:59;;;;;;;1.50;1.40;;;;;;;;;;5010375;28;20451;-73
2021/12/02 08:25:26;;;;;;;1.30;1.30;;;;;;;;;;5011491;28;20872;-73
2021/12/02 08:27:53;;;;;;;4.53;1.93;;;;;;;;;;5011775;28;20796;-73
2021/12/02 08:30:26;;;;;;;2.10;1.70;;;;;;;;;;5008841;28;20440;-73
2021/12/02 08:32:52;;;;;;;3.27;1.80;;;;;;;;;;5005154;28;20511;-72
2021/12/02 08:35:18;;;;;;;4.87;1.67;;;;;;;;;;5006770;28;20862;-74
2021/12/02 08:37:46;;;;;;;2.00;1.63;;;;;;;;;;5011034;28;20530;-73
2021/12/02 08:40:16;;;;;;;1.70;1.10;;;;;;;;;;5041947;28;20924;-74
2021/12/02 08:42:42;;;;;;;1.00;1.00;;;;;;;;;;5009540;28;20476;-73
2021/12/02 08:45:08;;;;;;;1.47;1.20;;;;;;;;;;5007307;28;20480;-75
2021/12/02 08:47:42;;;;;;;3.20;1.50;;;;;;;;;;5008763;28;20557;-73
2021/12/02 08:50:08;;;;;;;4.37;1.40;;;;;;;;;;5001359;28;20610;-74
2021/12/02 08:52:35;;;;;;;0.70;0.70;;;;;;;;;;5001624;28;20451;-74
2021/12/02 08:55:02;;;;;;;1.67;0.70;;;;;;;;;;5005736;28;20932;-73
2021/12/02 08:57:29;;;;;;;1.73;1.73;;;;;;;;;;5010549;28;20451;-73
2021/12/02 08:59:55;;;;;;;3.57;1.07;;;;;;;;;;5004955;28;20462;-72
2021/12/02 09:02:21;;;;;;;1.60;1.03;;;;;;;;;;5007457;28;20479;-74
2021/12/02 09:04:47;;;;;;;1.20;1.10;;;;;;;;;;5008086;28;20939;-73
2021/12/02 09:07:14;;;;;;;4.20;1.17;;;;;;;;;;5011076;28;20527;-73
2021/12/02 09:09:41;;;;;;;6.27;4.70;;;;;;;;;;5005672;28;20424;-73
2021/12/02 09:12:08;;;;;;;4.53;3.00;;;;;;;;;;5007876;28;20535;-73
2021/12/02 09:14:34;;;;;;;4.43;1.97;;;;;;;;;;5007782;28;20432;-78
2021/12/02 09:17:00;;;;;;;3.67;3.30;;;;;;;;;;5041510;28;20726;-72
2021/12/02 09:19:26;;;;;;;9.43;7.63;;;;;;;;;;5004891;28;20505;-72
2021/12/02 09:21:52;;;;;;;3.37;1.97;;;;;;;;;;5007041;28;20491;-73
2021/12/02 09:24:18;;;;;;;9.63;7.10;;;;;;;;;;5006376;28;20424;-73
2021/12/02 09:26:46;;;;;;;3.63;2.63;;;;;;;;;;5009782;28;20464;-72
2021/12/02 09:29:12;;;;;;;3.93;3.00;;;;;;;;;;5003570;28;20432;-73
2021/12/02 09:31:40;;;;;;;3.87;3.50;;;;;;;;;;5005805;28;20447;-72
2021/12/02 09:34:06;;;;;;;2.10;1.90;;;;;;;;;;5002656;28;20448;-74
2021/12/02 09:36:32;;;;;;;3.50;2.40;;;;;;;;;;5008030;28;20447;-74
2021/12/02 09:38:58;;;;;;;9.97;5.50;;;;;;;;;;5003913;28;20804;-72
2021/12/02 09:41:24;;;;;;;2.03;1.93;;;;;;;;;;5005505;28;20508;-72
2021/12/02 09:43:50;;;;;;;9.93;6.37;;;;;;;;;;5003220;28;20491;-72
2021/12/02 09:46:17;;;;;;;4.63;4.23;;;;;;;;;;5008374;28;20487;-72
2021/12/02 09:48:44;;;;;;;9.40;6.30;;;;;;;;;;5007660;28;20442;-72
2021/12/02 09:51:17;;;;;;;4.87;4.37;;;;;;;;;;5010767;28;20478;-72
2021/12/02 09:53:58;;;;;;;13.53;6.63;;;;;;;;;;5004273;28;20460;-72
2021/12/02 09:56:30;;;;;;;3.63;3.33;;;;;;;;;;5010509;28;20506;-72
2021/12/02 09:59:03;;;;;;;4.17;3.30;;;;;;;;;;5007302;28;20432;-72
2021/12/02 10:04:05;;;;;;;8.80;5.10;;;;;;;;;;5004671;28;20448;-73
2021/12/02 10:06:32;;;;;;;28.60;15.47;;;;;;;;;;5010297;28;20420;-72
2021/12/02 10:09:12;;;;;;;27.13;15.43;;;;;;;;;;5007773;28;20508;-73
2021/12/02 10:11:51;;;;;;;8.70;7.77;;;;;;;;;;5009544;28;20416;-72
2021/12/02 10:14:19;;;;;;;5.40;4.77;;;;;;;;;;5006527;28;22135;-72
2021/12/02 10:16:47;;;;;;;6.83;5.10;;;;;;;;;;5039620;28;20446;-72
2021/12/02 10:19:19;;;;;;;4.13;3.40;;;;;;;;;;5007106;28;20467;-72
2021/12/02 10:21:52;;;;;;;3.67;3.50;;;;;;;;;;5006311;28;20494;-73
2021/12/02 10:24:23;;;;;;;2.40;1.70;;;;;;;;;;5005667;28;20550;-73
2021/12/02 10:26:53;;;;;;;1.70;1.60;;;;;;;;;;5009814;28;20424;-73
2021/12/02 10:29:21;;;;;;;3.37;3.17;;;;;;;;;;5007083;28;20438;-73
2021/12/02 10:31:48;;;;;;;1.50;1.40;;;;;;;;;;5005455;28;20428;-73
2021/12/02 10:34:18;;;;;;;1.43;1.20;;;;;;;;;;5004572;28;20511;-73
2021/12/02 10:36:46;;;;;;;3.50;3.00;;;;;;;;;;5041573;28;20788;-74
2021/12/02 10:39:21;;;;;;;2.23;1.63;;;;;;;;;;5039166;28;20519;-73
2021/12/02 10:41:58;;;;;;;6.33;2.37;;;;;;;;;;5006879;28;21003;-73
2021/12/02 10:44:24;;;;;;;4.30;3.37;;;;;;;;;;5005492;28;20434;-73
2021/12/02 10:46:57;;;;;;;4.87;2.17;;;;;;;;;;5008908;28;20483;-74
2021/12/02 10:49:23;;;;;;;3.37;2.60;;;;;;;;;;5004741;28;20464;-75
2021/12/02 10:51:50;;;;;;;3.13;2.60;;;;;;;;;;5006689;28;20522;-73
2021/12/02 10:54:27;;;;;;;1.70;1.60;;;;;;;;;;5003727;28;20468;-73
2021/12/02 10:56:58;;;;;;;2.23;2.03;;;;;;;;;;5009597;28;20408;-73
2021/12/02 10:59:24;;;;;;;3.63;2.30;;;;;;;;;;5006019;28;20515;-73
2021/12/02 11:01:51;;;;;;;1.73;1.63;;;;;;;;;;5006753;28;20579;-73
2021/12/02 11:04:17;;;;;;;2.90;2.57;;;;;;;;;;5005247;28;20436;-74
2021/12/02 11:06:44;;;;;;;1.83;1.73;;;;;;;;;;5010572;28;20432;-74
2021/12/02 11:09:29;;;;;;;1.73;1.73;;;;;;;;;;5013782;28;20408;-73
2021/12/02 11:12:10;;;;;;;5.17;1.50;;;;;;;;;;5012569;28;20456;-74
2021/12/02 11:14:37;;;;;;;3.13;1.67;;;;;;;;;;5010943;28;20420;-74
2021/12/02 11:17:13;;;;;;;3.60;1.33;;;;;;;;;;5014410;28;20436;-73
2021/12/02 11:19:42;;;;;;;1.20;1.20;;;;;;;;;;5012468;28;20428;-73
2021/12/02 11:22:10;;;;;;;0.90;0.90;;;;;;;;;;5010950;28;20479;-75
2021/12/02 11:24:37;;;;;;;2.07;1.97;;;;;;;;;;5012119;28;20513;-74
2021/12/02 11:27:21;;;;;;;0.53;0.53;;;;;;;;;;5015910;28;20433;-69
2021/12/02 11:29:55;;;;;;;1.27;0.90;;;;;;;;;;5015645;28;20990;-76
2021/12/02 11:32:34;;;;;;;2.00;1.90;;;;;;;;;;5009524;28;20434;-76
2021/12/02 11:35:08;;;;;;;8.47;6.83;;;;;;;;;;5014537;28;20871;-74
2021/12/02 11:37:35;;;;;;;4.07;3.00;;;;;;;;;;5039151;28;20940;-73
2021/12/02 11:40:04;;;;;;;1.60;1.60;;;;;;;;;;5014780;28;20467;-74
2021/12/02 11:42:30;;;;;;;0.57;0.57;;;;;;;;;;5009546;28;21008;-74
2021/12/02 11:44:56;;;;;;;0.40;0.40;;;;;;;;;;5015065;28;20428;-74
2021/12/02 11:47:22;;;;;;;0.60;0.60;;;;;;;;;;5011290;28;20438;-73
2021/12/02 11:49:50;;;;;;;0.50;0.50;;;;;;;;;;5040446;28;20460;-74
2021/12/02 11:52:17;;;;;;;0.50;0.50;;;;;;;;;;5008285;28;20503;-73
2021/12/02 11:54:44;;;;;;;0.40;0.40;;;;;;;;;;5013628;28;20460;-73
2021/12/02 11:57:10;;;;;;;0.83;0.83;;;;;;;;;;5012240;28;20995;-74
2021/12/02 11:59:39;;;;;;;0.40;0.40;;;;;;;;;;5010355;28;20534;-74
2021/12/02 12:02:05;;;;;;;1.40;0.40;;;;;;;;;;5005471;28;20480;-74
2021/12/02 12:04:34;;;;;;;2.90;0.50;;;;;;;;;;5012220;28;20437;-74
2021/12/02 12:07:13;;;;;;;0.60;0.60;;;;;;;;;;5009130;28;20951;-74
2021/12/02 12:09:39;;;;;;;0.40;0.40;;;;;;;;;;5014103;28;20904;-73
2021/12/02 12:12:06;;;;;;;0.60;0.60;;;;;;;;;;5009146;28;20432;-74
2021/12/02 12:14:36;;;;;;;0.60;0.60;;;;;;;;;;5014693;28;20431;-74
2021/12/02 12:17:10;;;;;;;0.53;0.50;;;;;;;;;;5009512;28;20849;-73
2021/12/02 12:19:40;;;;;;;1.00;1.00;;;;;;;;;;5009123;28;21011;-75
2021/12/02 12:22:08;;;;;;;1.30;1.20;;;;;;;;;;5002832;28;20639;-75
2021/12/02 12:24:54;;;;;;;1.60;1.57;;;;;;;;;;5007776;28;20436;-73
2021/12/02 12:27:22;;;;;;;1.10;1.10;;;;;;;;;;5005438;28;20486;-74
2021/12/02 12:29:49;;;;;;;0.60;0.60;;;;;;;;;;5008922;28;20439;-73
2021/12/02 12:34:59;;;;;;;0.90;0.90;;;;;;;;;;5008904;28;20443;-74
2021/12/02 12:37:35;;;;;;;0.50;0.50;;;;;;;;;;5008584;28;20467;-73
2021/12/02 12:40:15;;;;;;;0.90;0.60;;;;;;;;;;5010755;28;20730;-72
2021/12/02 12:42:53;;;;;;;0.50;0.50;;;;;;;;;;5005827;28;20483;-73
2021/12/02 12:45:31;;;;;;;1.70;1.60;;;;;;;;;;5010769;28;20466;-73
2021/12/02 12:47:59;;;;;;;0.43;0.43;;;;;;;;;;5008955;28;20482;-73
2021/12/02 12:50:41;;;;;;;0.87;0.87;;;;;;;;;;5010351;28;20429;-73
2021/12/02 12:53:09;;;;;;;1.20;1.20;;;;;;;;;;5001981;28;20476;-73
2021/12/02 12:55:39;;;;;;;0.90;0.90;;;;;;;;;;5011303;28;20841;-73
2021/12/02 12:58:11;;;;;;;1.17;1.17;;;;;;;;;;5008138;28;20905;-73
2021/12/02 13:00:37;;;;;;;0.60;0.60;;;;;;;;;;5010496;28;20428;-73
2021/12/02 13:03:18;;;;;;;0.50;0.50;;;;;;;;;;5004744;28;20474;-73
2021/12/02 13:05:45;;;;;;;0.57;0.57;;;;;;;;;;5011324;28;20504;-73
2021/12/02 13:08:21;;;;;;;0.50;0.50;;;;;;;;;;5039689;28;20460;-73
2021/12/02 13:10:56;;;;;;;0.30;0.30;;;;;;;;;;5007688;28;20426;-73
2021/12/02 13:13:24;;;;;;;0.30;0.30;;;;;;;;;;5004961;28;20523;-74
2021/12/02 13:15:50;;;;;;;3.93;0.47;;;;;;;;;;5009412;28;20455;-73
2021/12/02 13:18:33;;;;;;;0.60;0.57;;;;;;;;;;5008256;28;21008;-72
2021/12/02 13:21:19;;;;;;;0.87;0.47;;;;;;;;;;5008019;28;20459;-72
2021/12/02 13:23:54;;;;;;;7.10;1.10;;;;;;;;;;5000504;28;20574;-73
2021/12/02 13:26:22;;;;;;;0.50;0.50;;;;;;;;;;5007161;28;20431;-73
2021/12/02 13:28:49;;;;;;;1.13;1.13;;;;;;;;;;5007804;28;20806;-72
2021/12/02 13:31:16;;;;;;;0.93;0.50;;;;;;;;;;5009774;28;20492;-74
2021/12/02 13:33:50;;;;;;;2.63;1.00;;;;;;;;;;5003067;28;20491;-72
2021/12/02 13:36:18;;;;;;;3.37;3.20;;;;;;;;;;5010742;28;20435;-73
2021/12/02 13:38:58;;;;;;;4.60;4.20;;;;;;;;;;5007255;28;20424;-73
2021/12/02 13:41:24;;;;;;;1.83;1.83;;;;;;;;;;5005980;28;20562;-73
2021/12/02 13:43:54;;;;;;;0.70;0.70;;;;;;;;;;5005948;28;20424;-73
2021/12/02 13:46:40;;;;;;;1.90;0.67;;;;;;;;;;5005411;28;20887;-73
2021/12/02 13:49:11;;;;;;;1.07;0.50;;;;;;;;;;5010300;28;20499;-74
2021/12/02 13:54:23;;;;;;;0.60;0.60;;;;;;;;;;5008968;28;20774;-73
2021/12/02 13:56:50;;;;;;;2.40;0.63;;;;;;;;;;5005691;28;20440;-73
2021/12/02 13:59:18;;;;;;;0.70;0.53;;;;;;;;;;5008109;28;20420;-73
2021/12/02 14:01:54;;;;;;;0.50;0.50;;;;;;;;;;4998683;28;20483;-73
2021/12/02 14:04:20;;;;;;;0.70;0.60;;;;;;;;;;5008038;28;20428;-73
2021/12/02 14:06:46;;;;;;;0.57;0.57;;;;;;;;;;5005042;28;20439;-74
2021/12/02 14:09:14;;;;;;;0.67;0.60;;;;;;;;;;5009413;28;20412;-73
2021/12/02 14:11:39;;;;;;;0.50;0.50;;;;;;;;;;5006087;28;20440;-72
2021/12/02 14:14:05;;;;;;;0.50;0.50;;;;;;;;;;5006155;28;20434;-73
2021/12/02 14:16:31;;;;;;;0.50;0.50;;;;;;;;;;5005754;28;20429;-72
2021/12/02 14:19:08;;;;;;;0.93;0.93;;;;;;;;;;5040932;28;20519;-73
2021/12/02 14:21:34;;;;;;;1.03;1.03;;;;;;;;;;5006988;28;20487;-73
2021/12/02 14:24:00;;;;;;;0.80;0.80;;;;;;;;;;5002328;28;20432;-74
2021/12/02 14:26:27;;;;;;;1.00;1.00;;;;;;;;;;5006592;28;20809;-73
2021/12/02 14:28:58;;;;;;;1.00;0.90;;;;;;;;;;5008266;28;20424;-73
2021/12/02 14:31:24;;;;;;;0.93;0.93;;;;;;;;;;5006122;28;20495;-74
2021/12/02 14:33:52;;;;;;;0.70;0.70;;;;;;;;;;5003709;28;20428;-72
2021/12/02 14:36:19;;;;;;;3.87;1.90;;;;;;;;;;5006259;28;20591;-73
2021/12/02 14:38:50;;;;;;;1.17;1.07;;;;;;;;;;5008993;28;20950;-73
2021/12/02 14:41:16;;;;;;;1.17;1.17;;;;;;;;;;5005882;28;20527;-73
2021/12/02 14:43:52;;;;;;;0.73;0.73;;;;;;;;;;5005876;28;21013;-73
2021/12/02 14:46:30;;;;;;;0.60;0.60;;;;;;;;;;5004918;28;20476;-73
2021/12/02 14:49:02;;;;;;;2.30;0.90;;;;;;;;;;5009093;28;20551;-72
2021/12/02 14:51:28;;;;;;;0.70;0.70;;;;;;;;;;5006726;28;20837;-72
2021/12/02 14:53:56;;;;;;;0.87;0.80;;;;;;;;;;5008178;28;20931;-73
2021/12/02 14:56:35;;;;;;;0.90;0.90;;;;;;;;;;5033655;28;20458;-73
2021/12/02 14:59:21;;;;;;;1.17;0.90;;;;;;;;;;5009293;28;20427;-73
2021/12/02 15:01:56;;;;;;;1.47;1.47;;;;;;;;;;4999891;28;20491;-74
2021/12/02 15:04:26;;;;;;;1.00;1.00;;;;;;;;;;5006902;28;20459;-73
2021/12/02 15:06:52;;;;;;;0.77;0.77;;;;;;;;;;5006144;28;20428;-73
2021/12/02 15:09:34;;;;;;;1.03;1.03;;;;;;;;;;5007709;28;20839;-74
2021/12/02 15:12:02;;;;;;;2.40;2.00;;;;;;;;;;5003001;28;20959;-73